createdAt,value
2019-03-11T00:00:38.866Z,1.60
2019-03-11T00:04:43.766Z,1.53
2019-03-11T00:08:48.661Z,2.67
2019-03-11T00:12:53.552Z,1.60
2019-03-11T00:16:58.450Z,2.00
2019-03-11T00:21:03.344Z,1.83
2019-03-11T00:25:08.245Z,1.80
2019-03-11T00:29:13.135Z,1.80
2019-03-11T00:33:18.016Z,2.20
2019-03-11T00:37:22.912Z,2.23
2019-03-11T00:41:27.817Z,2.00
2019-03-11T00:45:32.723Z,1.80
2019-03-11T00:49:37.615Z,2.10
2019-03-11T00:53:42.501Z,2.20
2019-03-11T00:57:47.406Z,2.00
2019-03-11T01:01:52.309Z,2.67
2019-03-11T01:05:57.241Z,1.90
2019-03-11T01:10:02.095Z,2.67
2019-03-11T01:14:08.242Z,2.73
2019-03-11T01:18:13.139Z,2.20
2019-03-11T01:22:18.042Z,2.87
2019-03-11T01:26:22.937Z,3.03
2019-03-11T01:30:27.844Z,1.93
2019-03-11T01:34:32.726Z,2.17
2019-03-11T01:38:37.627Z,2.10
2019-03-11T01:42:42.519Z,2.37
2019-03-11T01:46:47.414Z,2.23
2019-03-11T01:50:52.311Z,2.23
2019-03-11T01:54:57.234Z,2.53
2019-03-11T01:59:02.107Z,3.23
2019-03-11T02:03:07.247Z,1.80
2019-03-11T02:07:12.142Z,2.27
2019-03-11T02:11:17.024Z,1.07
2019-03-11T02:15:21.915Z,1.73
2019-03-11T02:19:26.799Z,2.37
2019-03-11T02:23:31.698Z,1.60
2019-03-11T02:27:36.595Z,2.00
2019-03-11T02:31:41.489Z,1.70
2019-03-11T02:35:46.380Z,2.20
2019-03-11T02:39:51.272Z,1.67
2019-03-11T02:43:56.173Z,2.10
2019-03-11T02:48:01.069Z,1.50
2019-03-11T02:52:05.966Z,2.00
2019-03-11T02:56:10.866Z,1.70
2019-03-11T03:00:19.143Z,1.93
2019-03-11T03:04:31.494Z,2.03
2019-03-11T03:08:36.386Z,0.63
2019-03-11T03:12:41.282Z,0.23
2019-03-11T03:16:46.178Z,0.20
2019-03-11T03:20:51.054Z,0.30
2019-03-11T03:24:55.941Z,0.40
2019-03-11T03:29:00.856Z,0.20
2019-03-11T03:33:05.735Z,0.30
2019-03-11T03:37:10.620Z,0.20
2019-03-11T03:41:15.498Z,0.20
2019-03-11T03:45:25.976Z,0.20
2019-03-11T03:49:31.934Z,0.20
2019-03-11T03:53:36.819Z,0.10
2019-03-11T03:57:41.729Z,0.10
2019-03-11T04:01:46.632Z,0.30
2019-03-11T04:05:51.490Z,0.10
2019-03-11T04:09:56.380Z,0.20
2019-03-11T04:14:01.270Z,0.10
2019-03-11T04:18:08.766Z,0.27
2019-03-11T04:22:13.646Z,0.20
2019-03-11T04:26:18.532Z,0.17
2019-03-11T04:30:29.635Z,0.17
2019-03-11T04:34:36.068Z,0.10
2019-03-11T04:38:41.193Z,0.30
2019-03-11T04:42:46.069Z,0.30
2019-03-11T04:46:50.973Z,0.10
2019-03-11T04:50:55.869Z,0.17
2019-03-11T04:55:00.755Z,0.20
2019-03-11T04:59:10.851Z,0.10
2019-03-11T05:03:15.723Z,0.30
2019-03-11T05:07:20.616Z,0.10
2019-03-11T05:11:25.512Z,0.20
2019-03-11T05:15:30.401Z,0.10
2019-03-11T05:19:35.303Z,0.20
2019-03-11T05:23:40.169Z,0.30
2019-03-11T05:27:46.132Z,0.30
2019-03-11T05:31:51.032Z,0.30
2019-03-11T05:35:55.919Z,0.63
2019-03-11T05:40:00.813Z,0.50
2019-03-11T05:44:05.686Z,0.70
2019-03-11T05:48:10.583Z,1.13
2019-03-11T05:52:15.470Z,0.70
2019-03-11T05:56:20.362Z,0.77
2019-03-11T06:00:29.627Z,0.60
2019-03-11T06:04:34.504Z,0.50
2019-03-11T06:08:39.391Z,0.60
2019-03-11T06:12:44.279Z,0.47
2019-03-11T06:16:49.172Z,0.30
2019-03-11T06:20:55.702Z,0.60
2019-03-11T06:25:00.576Z,0.60
2019-03-11T06:29:05.538Z,0.40
2019-03-11T06:33:10.429Z,0.70
2019-03-11T06:37:15.311Z,0.70
2019-03-11T06:41:20.201Z,0.50
2019-03-11T06:45:25.085Z,0.70
2019-03-11T06:49:30.943Z,0.70
2019-03-11T06:53:35.840Z,0.80
2019-03-11T06:57:40.800Z,0.80
2019-03-11T07:01:45.689Z,1.40
2019-03-11T07:05:50.589Z,1.13
2019-03-11T07:09:55.472Z,0.90
2019-03-11T07:14:00.371Z,1.10
2019-03-11T07:18:05.335Z,0.87
2019-03-11T07:22:10.215Z,0.93
2019-03-11T07:26:15.102Z,0.90
2019-03-11T07:30:21.130Z,0.80
2019-03-11T07:34:26.025Z,1.10
2019-03-11T07:38:30.920Z,0.90
2019-03-11T07:42:35.799Z,1.13
2019-03-11T07:46:40.680Z,1.10
2019-03-11T07:50:45.565Z,1.10
2019-03-11T07:54:50.454Z,1.40
2019-03-11T07:58:55.356Z,1.37
2019-03-11T08:03:00.245Z,0.90
2019-03-11T08:07:05.153Z,0.97
2019-03-11T08:11:10.019Z,1.10
2019-03-11T08:15:15.753Z,1.10
2019-03-11T08:19:20.643Z,1.00
2019-03-11T08:23:26.319Z,2.10
2019-03-11T08:27:31.214Z,1.53
2019-03-11T08:31:36.371Z,1.17
2019-03-11T08:35:41.253Z,1.20
2019-03-11T08:39:46.144Z,0.93
2019-03-11T08:43:51.038Z,1.20
2019-03-11T08:47:55.925Z,1.67
2019-03-11T08:52:01.195Z,1.30
2019-03-11T08:56:06.089Z,1.40
2019-03-11T09:00:16.875Z,0.87
2019-03-11T09:04:21.771Z,1.17
2019-03-11T09:08:26.660Z,2.20
2019-03-11T09:12:31.555Z,1.47
2019-03-11T09:16:36.440Z,1.60
2019-03-11T09:20:41.345Z,0.90
2019-03-11T09:24:47.059Z,1.30
2019-03-11T09:28:51.958Z,1.50
2019-03-11T09:32:56.850Z,1.10
2019-03-11T09:37:02.815Z,1.00
2019-03-11T09:41:07.720Z,0.80
2019-03-11T09:45:17.898Z,0.77
2019-03-11T09:49:24.381Z,0.97
2019-03-11T09:53:29.257Z,0.90
2019-03-11T09:57:34.155Z,1.20
2019-03-11T10:01:39.045Z,1.00
2019-03-11T10:05:45.109Z,0.90
2019-03-11T10:09:50.010Z,1.00
2019-03-11T10:13:54.904Z,1.20
2019-03-11T10:17:59.805Z,0.93
2019-03-11T10:22:04.702Z,1.00
2019-03-11T10:26:09.588Z,1.00
2019-03-11T10:30:21.683Z,1.20
2019-03-11T10:34:26.563Z,0.90
2019-03-11T10:38:31.450Z,1.10
2019-03-11T10:42:36.341Z,1.00
2019-03-11T10:46:41.237Z,1.20
2019-03-11T10:50:46.180Z,1.10
2019-03-11T10:54:51.034Z,1.13
2019-03-11T10:58:55.909Z,1.20
2019-03-11T11:03:01.151Z,1.17
2019-03-11T11:07:06.035Z,1.70
2019-03-11T11:11:11.217Z,1.27
2019-03-11T11:15:26.898Z,1.73
2019-03-11T11:19:31.786Z,1.50
2019-03-11T11:23:36.685Z,2.03
2019-03-11T11:27:41.582Z,1.73
2019-03-11T11:31:46.481Z,1.33
2019-03-11T11:35:51.377Z,1.20
2019-03-11T11:39:56.255Z,1.67
2019-03-11T11:44:01.152Z,1.33
2019-03-11T11:48:08.251Z,1.60
2019-03-11T11:52:12.635Z,1.27
2019-03-11T11:56:17.542Z,1.97
2019-03-11T12:00:35.555Z,1.80
2019-03-11T12:04:40.441Z,1.40
2019-03-11T12:08:45.340Z,1.20
2019-03-11T12:12:50.231Z,1.23
2019-03-11T12:16:55.130Z,1.30
2019-03-11T12:21:00.024Z,1.60
2019-03-11T12:25:07.853Z,1.47
2019-03-11T12:29:12.758Z,1.10
2019-03-11T12:33:20.237Z,1.77
2019-03-11T12:37:24.561Z,1.80
2019-03-11T12:41:29.447Z,3.87
2019-03-11T12:45:34.328Z,1.60
2019-03-11T12:49:39.216Z,1.50
2019-03-11T12:53:44.102Z,1.97
2019-03-11T12:57:48.997Z,1.20
2019-03-11T13:01:53.898Z,1.20
2019-03-11T13:05:58.778Z,1.50
2019-03-11T13:10:05.877Z,1.30
2019-03-11T13:14:11.807Z,1.27
2019-03-11T13:18:34.572Z,1.27
2019-03-11T13:22:39.470Z,1.40
2019-03-11T13:26:44.357Z,1.33
2019-03-11T13:30:49.253Z,1.90
2019-03-11T13:34:55.743Z,2.17
2019-03-11T13:39:00.635Z,1.37
2019-03-11T13:43:07.137Z,1.60
2019-03-11T13:47:12.019Z,1.73
2019-03-11T13:51:16.923Z,1.80
2019-03-11T13:55:21.873Z,1.60
2019-03-11T13:59:26.710Z,1.57
2019-03-11T14:03:31.602Z,1.90
2019-03-11T14:07:36.491Z,1.57
2019-03-11T14:11:41.383Z,1.47
2019-03-11T14:15:46.387Z,0.97
2019-03-11T14:19:51.791Z,0.90
2019-03-11T14:23:56.690Z,1.23
2019-03-11T14:28:01.571Z,1.40
2019-03-11T14:32:06.465Z,1.67
2019-03-11T14:36:11.365Z,1.47
2019-03-11T14:40:17.400Z,1.83
2019-03-11T14:44:22.291Z,1.10
2019-03-11T14:48:27.166Z,1.20
2019-03-11T14:52:33.564Z,1.53
2019-03-11T14:56:38.456Z,1.60
2019-03-11T15:00:43.345Z,1.60
2019-03-11T15:04:50.836Z,1.40
2019-03-11T15:08:54.883Z,2.20
2019-03-11T15:12:59.778Z,0.90
2019-03-11T15:17:04.666Z,1.37
2019-03-11T15:21:09.557Z,1.93
2019-03-11T15:25:15.485Z,1.90
2019-03-11T15:29:20.364Z,2.07
2019-03-11T15:33:25.255Z,1.47
2019-03-11T15:37:30.152Z,1.17
2019-03-11T15:41:35.039Z,1.60
2019-03-11T15:45:41.001Z,2.20
2019-03-11T15:49:45.881Z,1.30
2019-03-11T15:53:50.766Z,1.60
2019-03-11T15:57:55.658Z,1.33
2019-03-11T16:02:00.561Z,1.33
2019-03-11T16:06:06.545Z,1.37
2019-03-11T16:10:17.089Z,1.70
2019-03-11T16:14:20.443Z,1.40
2019-03-11T16:18:26.286Z,2.73
2019-03-11T16:22:32.237Z,1.23
2019-03-11T16:26:37.414Z,1.57
2019-03-11T16:30:42.370Z,1.70
2019-03-11T16:34:47.257Z,1.30
2019-03-11T16:38:52.143Z,1.27
2019-03-11T16:42:57.025Z,1.20
2019-03-11T16:47:01.924Z,1.53
2019-03-11T16:51:06.831Z,1.87
2019-03-11T16:55:19.298Z,1.50
2019-03-11T16:59:24.200Z,1.40
2019-03-11T17:03:29.083Z,1.10
2019-03-11T17:07:34.050Z,1.13
2019-03-11T17:11:38.944Z,1.50
2019-03-11T17:15:43.830Z,1.90
2019-03-11T17:19:48.713Z,1.60
2019-03-11T17:23:53.622Z,1.30
2019-03-11T17:27:58.522Z,1.80
2019-03-11T17:32:03.419Z,1.37
2019-03-11T17:36:08.384Z,1.20
2019-03-11T17:40:16.081Z,1.70
2019-03-11T17:44:20.978Z,1.37
2019-03-11T17:48:25.955Z,1.30
2019-03-11T17:52:30.849Z,1.20
2019-03-11T17:56:35.742Z,2.00
2019-03-11T18:00:42.277Z,3.30
2019-03-11T18:04:47.189Z,1.90
2019-03-11T18:08:52.156Z,2.13
2019-03-11T18:12:57.047Z,2.67
2019-03-11T18:17:01.937Z,2.20
2019-03-11T18:21:07.795Z,2.80
2019-03-11T18:25:14.904Z,1.90
2019-03-11T18:29:19.885Z,3.13
2019-03-11T18:33:24.775Z,2.43
2019-03-11T18:37:29.686Z,2.40
2019-03-11T18:41:34.560Z,3.43
2019-03-11T18:45:39.520Z,3.77
2019-03-11T18:49:45.373Z,2.40
2019-03-11T18:53:50.265Z,2.10
2019-03-11T18:57:55.136Z,2.70
2019-03-11T19:02:00.051Z,2.67
2019-03-11T19:06:04.969Z,2.40
2019-03-11T19:10:12.483Z,1.93
2019-03-11T19:14:17.402Z,2.47
2019-03-11T19:18:22.253Z,2.43
2019-03-11T19:22:27.146Z,2.33
2019-03-11T19:26:32.049Z,1.70
2019-03-11T19:30:36.936Z,1.97
2019-03-11T19:34:41.899Z,2.87
2019-03-11T19:38:46.822Z,2.50
2019-03-11T19:42:51.714Z,2.80
2019-03-11T19:46:56.602Z,2.70
2019-03-11T19:51:01.507Z,3.50
2019-03-11T19:55:07.580Z,2.63
2019-03-11T19:59:12.401Z,2.57
2019-03-11T20:03:26.419Z,2.30
2019-03-11T20:07:24.034Z,2.50
2019-03-11T20:11:29.289Z,2.60
2019-03-11T20:15:34.370Z,2.47
2019-03-11T20:19:39.397Z,2.80
2019-03-11T20:23:44.332Z,3.03
2019-03-11T20:27:49.216Z,2.60
2019-03-11T20:31:54.112Z,2.37
2019-03-11T20:35:58.977Z,3.40
2019-03-11T20:40:05.719Z,3.07
2019-03-11T20:44:10.662Z,3.07
2019-03-11T20:48:15.546Z,3.03
2019-03-11T20:52:20.502Z,3.17
2019-03-11T20:56:25.386Z,3.67
2019-03-11T21:00:30.275Z,4.10
2019-03-11T21:04:35.144Z,4.17
2019-03-11T21:08:40.184Z,3.70
2019-03-11T21:12:45.232Z,3.87
2019-03-11T21:16:50.172Z,3.83
2019-03-11T21:21:03.954Z,3.23
2019-03-11T21:25:01.684Z,4.20
2019-03-11T21:29:06.690Z,3.67
2019-03-11T21:33:11.617Z,4.33
2019-03-11T21:37:16.563Z,4.03
2019-03-11T21:41:21.495Z,3.73
2019-03-11T21:45:34.102Z,3.73
2019-03-11T21:49:33.019Z,4.00
2019-03-11T21:53:38.120Z,4.23
2019-03-11T21:57:42.991Z,3.63
2019-03-11T22:01:47.905Z,3.73
2019-03-11T22:05:52.811Z,3.43
2019-03-11T22:09:57.703Z,4.07
2019-03-11T22:14:02.600Z,3.80
2019-03-11T22:18:07.518Z,3.13
2019-03-11T22:22:12.385Z,2.93
2019-03-11T22:26:17.272Z,2.90
2019-03-11T22:30:24.074Z,2.93
2019-03-11T22:34:28.968Z,2.90
2019-03-11T22:38:33.866Z,3.37
2019-03-11T22:42:38.747Z,1.90
2019-03-11T22:46:43.638Z,2.90
2019-03-11T22:50:48.535Z,3.80
2019-03-11T22:54:53.425Z,2.57
2019-03-11T22:58:58.318Z,2.07
2019-03-11T23:03:06.523Z,2.43
2019-03-11T23:07:09.870Z,4.03
2019-03-11T23:11:14.767Z,3.67
2019-03-11T23:15:19.660Z,3.00
2019-03-11T23:19:24.557Z,2.40
2019-03-11T23:23:29.453Z,2.40
2019-03-11T23:27:35.387Z,3.17
2019-03-11T23:31:40.397Z,2.63
2019-03-11T23:35:45.365Z,3.10
2019-03-11T23:39:50.264Z,2.43
2019-03-11T23:43:55.160Z,2.50
2019-03-11T23:48:00.046Z,2.63
2019-03-11T23:52:04.939Z,2.20
2019-03-11T23:56:09.832Z,2.43
